DTTF/GAF METAR and TAF weather

Enter ICAO airport designator
Station Type Date Time Source
DTTF METAR 2020/09/18 23:00 UTC NOAA

DTTF 182300Z 02008KT 8000 NSC 27/16 Q1019 NOSIG


Station Type Date Time Source
DTTF Decoded METAR 2020/09/18 23:00 UTC NOAA

Gafsa, Tunisia (DTTF) 34-25N 008-49E 314M
Sep 18, 2020 - 07:00 PM EDT / 2020.09.18 2300 UTC
Wind: from the NNE (020 degrees) at 9 MPH (8 KT):0
Visibility: 4 mile(s):0
Temperature: 80 F (27 C)
Dew Point: 60 F (16 C)
Relative Humidity: 50%
Pressure (altimeter): 30.09 in. Hg (1019 hPa)
ob: DTTF 182300Z 02008KT 8000 NSC 27/16 Q1019 NOSIG
cycle: 23

Station Type Date Time Source
DTTF TAF 2020/09/02 19:15 UTC NOAA

TAF DTTF 021800Z 0219/0310 18006KT 9999 SCT026
BECMG 0222/0224 04018KT PROB30
TEMPO 0304/0310 TSRA FEW026CB

Example: see airport list